WetterOnline ( https://www.wetteronline.de )

Wetter aktuell Rostock

Aktuelles Wetter: Rostock-Warnemünde (10m)

6-stündlich | Neueste Meldungen
Ortszeit Temperatur Wetter
Mo, 21.10. 20:00 14.1° C bedeckt
Mo, 21.10. 14:00 14.4° C bedeckt
Mo, 21.10. 8:00 11.4° C bedeckt
Mo, 21.10. 2:00 11.8° C Regen
So, 20.10. 20:00 12.9° C leichter Regen
So, 20.10. 14:00 14.4° C bedeckt
So, 20.10. 8:00 11.5° C bewölkt
So, 20.10. 2:00 12.9° C wolkig
Ortszeit Temperatur Wetter
Di, 22.10. 0:00 13.4° C leicht bewölkt
Mo, 21.10. 23:50 13.4° C leicht bewölkt
Mo, 21.10. 23:40 13.3° C leicht bewölkt
Mo, 21.10. 23:30 13.0° C bewölkt
Mo, 21.10. 23:20 13.0° C bewölkt
Mo, 21.10. 23:10 13.0° C bewölkt
Mo, 21.10. 23:00 13.3° C leicht bewölkt
Mo, 21.10. 22:30 14.0° C wolkenlos
Mo, 21.10. 22:00 13.7° C leicht bewölkt
Mo, 21.10. 21:30 13.9° C bewölkt
Mo, 21.10. 21:00 13.7° C wolkig
Ortszeit Relative Feuchte Sichtweite
Mo, 21.10. 20:00 92% 8 km
Mo, 21.10. 14:00 89% 12 km
Mo, 21.10. 8:00 92% 50 km
Mo, 21.10. 2:00 91% 45 km
So, 20.10. 20:00 97% 8 km
So, 20.10. 14:00 80% 35 km
So, 20.10. 8:00 95% 27 km
So, 20.10. 2:00 91% 50 km
Ortszeit Relative Feuchte Sichtweite
Di, 22.10. 0:00 94% 9 km
Mo, 21.10. 23:50 94% -
Mo, 21.10. 23:40 95% -
Mo, 21.10. 23:30 95% 6 km
Mo, 21.10. 23:20 95% -
Mo, 21.10. 23:10 95% -
Mo, 21.10. 23:00 94% 9 km
Mo, 21.10. 22:30 92% 9 km
Mo, 21.10. 22:00 93% 9 km
Mo, 21.10. 21:30 94% 8 km
Mo, 21.10. 21:00 94% 7 km
Ortszeit Niederschlagsmenge Niederschlagsart
Mo, 21.10. 20:00 0.1 l/m2 in 12 Std. Regen
Mo, 21.10. 14:00 0.1 l/m2 in 6 Std. Regen
Mo, 21.10. 8:00 6 l/m2 in 12 Std. Regen
Mo, 21.10. 2:00 5 l/m2 in 6 Std. Regen
So, 20.10. 20:00 0.6 l/m2 in 12 Std. Regen
So, 20.10. 14:00 0.0 l/m2 in 6 Std. -
So, 20.10. 8:00 0.4 l/m2 in 12 Std. Sprühregen
So, 20.10. 2:00 0.4 l/m2 in 6 Std. Regen
Ortszeit Niederschlagsmenge Niederschlagsart
Di, 22.10. 0:00 0.0 l/m2 in 1 Std. -
Mo, 21.10. 23:50 keine Meldung -
Mo, 21.10. 23:40 keine Meldung -
Mo, 21.10. 23:30 0.0 l/m2 in 1 Std. -
Mo, 21.10. 23:20 keine Meldung -
Mo, 21.10. 23:10 keine Meldung -
Mo, 21.10. 23:00 0.0 l/m2 in 1 Std. -
Mo, 21.10. 22:30 0.0 l/m2 in 1 Std. -
Mo, 21.10. 22:00 0.0 l/m2 in 1 Std. -
Mo, 21.10. 21:30 0.0 l/m2 in 1 Std. -
Mo, 21.10. 21:00 0.0 l/m2 in 1 Std. -
Ortszeit Stärke Spitze Richtung
km/h Bft. km/h Grad Sektor
Mo, 21.10. 20:00 7 2 25 210° SW
Mo, 21.10. 14:00 13 3 28 160° S
Mo, 21.10. 8:00 7 2 32 90° O
Mo, 21.10. 2:00 26 4 33 40° NO
So, 20.10. 20:00 7 2 14 50° NO
So, 20.10. 14:00 7 2 18 160° S
So, 20.10. 8:00 7 2 17 190° S
So, 20.10. 2:00 4 1 36 180° S
Ortszeit Stärke Spitze Richtung
km/h Bft. km/h Grad Sektor
Di, 22.10. 0:00 9 2 15 200° S
Mo, 21.10. 23:50 9 2 - 200° S
Mo, 21.10. 23:40 11 2 - 210° SW
Mo, 21.10. 23:30 11 2 14 200° S
Mo, 21.10. 23:20 11 2 - 200° S
Mo, 21.10. 23:10 11 2 - 200° S
Mo, 21.10. 23:00 9 2 17 210° SW
Mo, 21.10. 22:30 9 2 17 220° SW
Mo, 21.10. 22:00 9 2 13 190° S
Mo, 21.10. 21:30 9 2 13 200° S
Mo, 21.10. 21:00 11 2 14 210° SW
Ortszeit Untergrenze Bedeckung Gattung
total tief tief mittel hoch
Mo, 21.10. 20:00 4200 m 8/8 8/8 - - -
Mo, 21.10. 14:00 240 m 8/8 8/8 - - -
Mo, 21.10. 8:00 840 m 8/8 8/8 - - -
Mo, 21.10. 2:00 330 m 8/8 8/8 - - -
So, 20.10. 20:00 240 m 8/8 8/8 - - -
So, 20.10. 14:00 1500 m 8/8 8/8 - - -
So, 20.10. 8:00 1800 m 8/8 5/8 - - -
So, 20.10. 2:00 1800 m 8/8 1/8 - - -
Ortszeit Bedeckungsgrad in Achtel und Wolkenuntergrenze
Di, 22.10. 0:00 3(1140m) 4(1500m)
Mo, 21.10. 23:50 3(1140m) 4(1500m)
Mo, 21.10. 23:40 2(4500m)
Mo, 21.10. 23:30 7(4500m)
Mo, 21.10. 23:20 7(4500m)
Mo, 21.10. 23:10 7(4500m)
Mo, 21.10. 23:00 3(4500m)
Mo, 21.10. 22:30 keine Wolken
Mo, 21.10. 22:00 2(4500m)
Mo, 21.10. 21:30 7(4200m)
Mo, 21.10. 21:00 6(4200m)
Ortszeit Luftdruck NN (hPa) Tendenz (hPa in 3 Std.)
Mo, 21.10. 20:00 1019 + 1,7
Mo, 21.10. 14:00 1018 + 1,3
Mo, 21.10. 8:00 1016 + 1,7
Mo, 21.10. 2:00 1015 + 1,6
So, 20.10. 20:00 1013 + 1,7
So, 20.10. 14:00 1011 + 0,4
So, 20.10. 8:00 1009 + 1,1
So, 20.10. 2:00 1008 + 0,7
Ortszeit Luftdruck NN (hPa) Tendenz (hPa in 3 Std.)
Di, 22.10. 0:00 1020 + 0,2
Mo, 21.10. 23:50 1020 keine Meldung
Mo, 21.10. 23:40 1020 keine Meldung
Mo, 21.10. 23:30 1020 + 0,1
Mo, 21.10. 23:20 1020 keine Meldung
Mo, 21.10. 23:10 1020 keine Meldung
Mo, 21.10. 23:00 1020 + 0,3
Mo, 21.10. 22:30 1020 + 0,6
Mo, 21.10. 22:00 1020 + 1,1
Mo, 21.10. 21:30 1020 + 1,2
Mo, 21.10. 21:00 1020 + 1,6
Ortszeit Schneehöhe (cm)
Mo, 21.10. 20:00 0
Mo, 21.10. 14:00 0
Mo, 21.10. 8:00 0
Mo, 21.10. 2:00 0
So, 20.10. 20:00 0
So, 20.10. 14:00 0
So, 20.10. 8:00 0
So, 20.10. 2:00 0
Ortszeit Schneehöhe (cm)
Di, 22.10. 0:00 0
Mo, 21.10. 23:50 0
Mo, 21.10. 23:40 0
Mo, 21.10. 23:30 0
Mo, 21.10. 23:20 0
Mo, 21.10. 23:10 0
Mo, 21.10. 23:00 0
Mo, 21.10. 22:30 0
Mo, 21.10. 22:00 0
Mo, 21.10. 21:30 0
Mo, 21.10. 21:00 0
Link zu dieser Seite / Seite empfehlen

Das Wetter in ...